Time;durP1;ratioP1;P1;durP2;ratioP2;P2;SDS_P1;SDS_P2;PMS_P1;PMS_P2;Temp;Humidity;BMP_temperature;BMP_pressure;BME280_temperature;BME280_humidity;BME280_pressure;Samples;Min_cycle;Max_cycle;Signal;HPM_P1;HPM_P2
2022/11/21 00:00:04;;;;;;;57.53;30.20;;;6.40;99.90;;;;;;5029009;28;20389;-74
2022/11/21 00:02:30;;;;;;;70.28;33.95;;;6.40;99.90;;;;;;5025248;28;20386;-73
2022/11/21 00:04:55;;;;;;;65.10;31.90;;;6.30;99.90;;;;;;5019541;28;20457;-73
2022/11/21 00:07:21;;;;;;;58.53;29.10;;;6.30;99.90;;;;;;5011496;28;20818;-74
2022/11/21 00:09:46;;;;;;;58.63;30.40;;;6.30;99.90;;;;;;5010147;28;20400;-74
2022/11/21 00:12:12;;;;;;;60.17;30.00;;;6.20;99.90;;;;;;5010945;28;20404;-74
2022/11/21 00:14:37;;;;;;;59.10;30.20;;;6.20;99.90;;;;;;5010774;28;20396;-73
2022/11/21 00:17:03;;;;;;;55.23;28.67;;;6.20;99.90;;;;;;5011028;28;20460;-73
2022/11/21 00:19:28;;;;;;;55.80;27.10;;;6.20;99.90;;;;;;5009924;28;20449;-72
2022/11/21 00:21:54;;;;;;;53.87;27.47;;;6.20;99.90;;;;;;5010883;28;20862;-73
2022/11/21 00:24:19;;;;;;;53.30;26.97;;;6.20;99.90;;;;;;5011215;28;20491;-74
2022/11/21 00:26:45;;;;;;;52.20;26.73;;;6.20;99.90;;;;;;5011292;28;20384;-74
2022/11/21 00:29:10;;;;;;;52.10;26.53;;;6.20;99.90;;;;;;5011629;28;20389;-74
2022/11/21 00:31:36;;;;;;;57.30;28.60;;;6.20;99.90;;;;;;5013648;28;20381;-74
2022/11/21 00:34:01;;;;;;;55.00;28.03;;;6.20;99.90;;;;;;5018331;28;20417;-73
2022/11/21 00:36:27;;;;;;;59.70;28.93;;;6.20;99.90;;;;;;5013966;28;20858;-74
2022/11/21 00:38:52;;;;;;;61.67;30.37;;;6.20;99.90;;;;;;5011809;28;20861;-74
2022/11/21 00:41:18;;;;;;;59.00;27.33;;;6.10;99.90;;;;;;5013678;28;20420;-74
2022/11/21 00:43:43;;;;;;;64.33;31.53;;;6.00;99.90;;;;;;5016894;28;20401;-74
2022/11/21 00:46:09;;;;;;;67.93;33.00;;;5.90;99.90;;;;;;5017887;28;20402;-74
2022/11/21 00:48:34;;;;;;;72.03;35.53;;;5.90;99.90;;;;;;5017212;28;20448;-74
2022/11/21 00:51:00;;;;;;;77.10;37.97;;;5.90;99.90;;;;;;5013333;28;20492;-75
2022/11/21 00:53:26;;;;;;;77.50;36.28;;;5.90;99.90;;;;;;5010853;28;20479;-73
2022/11/21 00:55:52;;;;;;;79.97;38.92;;;5.90;99.90;;;;;;5010525;28;20385;-72
2022/11/21 00:58:17;;;;;;;85.93;36.70;;;5.90;99.90;;;;;;5014486;28;20385;-73
2022/11/21 01:00:43;;;;;;;82.50;38.70;;;5.90;99.90;;;;;;5014465;28;20747;-72
2022/11/21 01:03:08;;;;;;;79.87;37.67;;;5.90;99.90;;;;;;5014216;28;20419;-73
2022/11/21 01:05:34;;;;;;;69.60;29.30;;;5.90;99.90;;;;;;5014434;28;20468;-73
2022/11/21 01:07:59;;;;;;;76.73;34.43;;;5.80;99.90;;;;;;5014331;28;20385;-73
2022/11/21 01:10:25;;;;;;;73.27;33.13;;;5.80;99.90;;;;;;5012848;28;20460;-74
2022/11/21 01:12:51;;;;;;;77.17;34.63;;;5.70;99.90;;;;;;5013844;28;20464;-74
2022/11/21 01:15:16;;;;;;;76.65;34.20;;;5.70;99.90;;;;;;5014560;28;20412;-74
2022/11/21 01:17:42;;;;;;;78.50;35.28;;;5.70;99.90;;;;;;5018987;28;20896;-73
2022/11/21 01:20:08;;;;;;;70.70;34.05;;;5.80;99.90;;;;;;5022136;28;20396;-74
2022/11/21 01:22:33;;;;;;;86.07;36.57;;;5.80;99.90;;;;;;5015868;28;20727;-74
2022/11/21 01:24:59;;;;;;;81.00;36.70;;;5.80;99.90;;;;;;5014163;28;20446;-74
2022/11/21 01:27:24;;;;;;;76.83;35.90;;;5.80;99.90;;;;;;5014272;28;20738;-73
2022/11/21 01:29:51;;;;;;;74.37;35.80;;;5.90;99.90;;;;;;5014095;28;20924;-74
2022/11/21 01:32:17;;;;;;;73.28;35.60;;;6.00;99.90;;;;;;5013412;28;20405;-73
2022/11/21 01:34:42;;;;;;;76.23;36.17;;;6.00;99.90;;;;;;5013693;28;20393;-73
2022/11/21 01:37:08;;;;;;;77.03;37.07;;;6.00;99.90;;;;;;5013731;28;20404;-73
2022/11/21 01:39:33;;;;;;;74.47;34.37;;;5.90;99.90;;;;;;5013723;28;20478;-75
2022/11/21 01:41:59;;;;;;;73.30;35.57;;;6.00;99.90;;;;;;5013414;28;20443;-73
2022/11/21 01:44:44;;;;;;;67.70;33.80;;;6.10;99.90;;;;;;5013539;28;20401;-72
2022/11/21 01:47:09;;;;;;;68.25;32.30;;;6.10;99.90;;;;;;5022752;28;20373;-74
2022/11/21 01:49:35;;;;;;;74.33;34.67;;;6.00;99.90;;;;;;5029024;28;20389;-72
2022/11/21 01:52:05;;;;;;;71.47;34.55;;;5.90;99.90;;;;;;5028587;28;20385;-73
2022/11/21 01:54:47;;;;;;;78.22;35.40;;;6.00;99.90;;;;;;5027330;28;20392;-73
2022/11/21 01:57:21;;;;;;;80.63;36.95;;;6.00;99.90;;;;;;5026258;28;20378;-74
2022/11/21 01:59:52;;;;;;;71.93;34.88;;;5.90;99.90;;;;;;5030277;28;20365;-75
2022/11/21 02:02:22;;;;;;;75.13;35.63;;;6.00;99.90;;;;;;5032979;28;20397;-74
2022/11/21 02:04:50;;;;;;;76.20;35.67;;;6.00;99.90;;;;;;5034576;28;20388;-74
2022/11/21 02:07:18;;;;;;;77.53;36.33;;;6.00;99.90;;;;;;5034589;28;20377;-75
2022/11/21 02:09:47;;;;;;;77.38;38.08;;;6.10;99.90;;;;;;5027048;28;20408;-74
2022/11/21 02:12:30;;;;;;;76.38;37.42;;;6.00;99.90;;;;;;5025005;28;20815;-73
2022/11/21 02:14:57;;;;;;;76.05;37.97;;;6.10;99.90;;;;;;5013356;28;20905;-73
2022/11/21 02:17:25;;;;;;;78.35;36.75;;;6.10;99.90;;;;;;5013680;28;20469;-72
2022/11/21 02:19:56;;;;;;;75.82;36.05;;;6.10;99.90;;;;;;5013761;28;20388;-74
2022/11/21 02:22:33;;;;;;;80.20;39.17;;;6.10;99.80;;;;;;5013014;28;20388;-73
2022/11/21 02:25:13;;;;;;;75.65;36.67;;;6.00;99.90;;;;;;5013251;28;20750;-73
2022/11/21 02:27:38;;;;;;;79.50;36.83;;;6.10;99.90;;;;;;5013031;28;20402;-74
2022/11/21 02:30:07;;;;;;;75.85;36.55;;;6.10;99.90;;;;;;5014234;28;20753;-73
2022/11/21 02:32:35;;;;;;;72.43;34.35;;;6.20;99.70;;;;;;5012389;28;20404;-74
2022/11/21 02:35:01;;;;;;;66.65;33.33;;;6.20;94.90;;;;;;5013031;28;20480;-74
2022/11/21 02:37:27;;;;;;;65.05;35.13;;;6.30;94.60;;;;;;5014474;28;20440;-76
2022/11/21 02:39:56;;;;;;;67.85;34.13;;;6.30;94.60;;;;;;5014629;28;20408;-73
2022/11/21 02:42:45;;;;;;;66.97;32.47;;;6.30;95.00;;;;;;5015705;28;20431;-73
2022/11/21 02:45:29;;;;;;;74.07;35.85;;;6.20;94.00;;;;;;5016222;28;20393;-73
2022/11/21 02:47:55;;;;;;;72.68;34.95;;;6.10;98.20;;;;;;5015156;28;20384;-74
2022/11/21 02:50:29;;;;;;;71.47;33.38;;;6.20;97.60;;;;;;5015157;28;20404;-72
2022/11/21 02:52:55;;;;;;;72.65;32.55;;;6.30;93.20;;;;;;5016119;28;20409;-73
2022/11/21 02:55:22;;;;;;;72.82;33.03;;;6.20;91.80;;;;;;5018197;28;20454;-73
2022/11/21 02:57:48;;;;;;;65.45;33.28;;;6.20;91.90;;;;;;5017586;28;20380;-73
2022/11/21 03:00:14;;;;;;;68.83;34.10;;;6.20;92.40;;;;;;5013722;28;20974;-72
2022/11/21 03:02:40;;;;;;;68.03;33.97;;;6.20;92.80;;;;;;5012359;28;20396;-73
2022/11/21 03:05:08;;;;;;;69.97;33.75;;;6.20;94.40;;;;;;5012038;28;20389;-71
2022/11/21 03:07:33;;;;;;;76.22;36.15;;;6.20;94.60;;;;;;5012072;28;20424;-72
2022/11/21 03:09:59;;;;;;;73.38;34.50;;;6.20;95.80;;;;;;5012173;28;20389;-73
2022/11/21 03:12:24;;;;;;;78.03;36.60;;;6.20;95.30;;;;;;5011839;28;20408;-73
2022/11/21 03:14:50;;;;;;;76.90;35.42;;;6.20;95.40;;;;;;5012030;28;20380;-73
2022/11/21 03:17:15;;;;;;;77.38;34.00;;;6.10;95.60;;;;;;5012347;28;20380;-74
2022/11/21 03:19:41;;;;;;;74.45;35.50;;;6.20;96.30;;;;;;5012257;28;20412;-74
2022/11/21 03:22:07;;;;;;;75.00;34.05;;;6.20;92.40;;;;;;5012257;28;20396;-74
2022/11/21 03:24:32;;;;;;;75.47;34.50;;;6.20;92.30;;;;;;5013965;28;20405;-74
2022/11/21 03:26:58;;;;;;;76.95;35.78;;;6.20;92.70;;;;;;5017666;28;20427;-73
2022/11/21 03:29:23;;;;;;;77.30;35.07;;;6.10;92.90;;;;;;5016392;28;20731;-73
2022/11/21 03:31:49;;;;;;;80.67;35.80;;;6.10;96.20;;;;;;5014178;28;20389;-73
2022/11/21 03:34:14;;;;;;;72.43;34.63;;;6.10;95.80;;;;;;5015534;28;20421;-73
2022/11/21 03:36:40;;;;;;;79.67;36.93;;;6.20;94.00;;;;;;5016395;28;20385;-75
2022/11/21 03:39:07;;;;;;;77.43;35.80;;;6.20;95.70;;;;;;5014279;28;20431;-73
2022/11/21 03:41:32;;;;;;;79.03;36.78;;;6.20;95.80;;;;;;5011852;28;20508;-74
2022/11/21 03:44:05;;;;;;;72.53;35.13;;;6.20;96.00;;;;;;5011880;28;20409;-73
2022/11/21 03:46:33;;;;;;;69.90;34.70;;;6.30;94.50;;;;;;5010280;28;20790;-73
2022/11/21 03:49:00;;;;;;;77.85;35.45;;;6.20;95.20;;;;;;5011162;28;20423;-73
2022/11/21 03:51:26;;;;;;;76.13;34.70;;;6.20;92.10;;;;;;5011180;28;20420;-73
2022/11/21 03:53:52;;;;;;;73.32;34.58;;;6.20;92.70;;;;;;5011079;28;20419;-72
2022/11/21 03:56:18;;;;;;;71.60;34.80;;;6.20;92.50;;;;;;5011359;28;20520;-74
2022/11/21 03:58:44;;;;;;;73.53;34.90;;;6.20;92.20;;;;;;5011784;28;20515;-74
2022/11/21 04:01:11;;;;;;;76.50;37.03;;;6.10;93.40;;;;;;5011525;28;20755;-74
2022/11/21 04:03:37;;;;;;;79.28;35.67;;;6.10;93.70;;;;;;5011191;28;20388;-73
2022/11/21 04:06:03;;;;;;;77.30;34.95;;;6.10;92.60;;;;;;5011700;28;20400;-73
2022/11/21 04:08:29;;;;;;;81.17;36.13;;;6.00;92.80;;;;;;5009943;28;20393;-75
2022/11/21 04:10:54;;;;;;;81.00;38.60;;;6.00;96.20;;;;;;5011065;28;20427;-73
2022/11/21 04:13:21;;;;;;;83.10;35.55;;;6.00;96.70;;;;;;5011123;28;20405;-73
2022/11/21 04:15:47;;;;;;;73.55;34.05;;;6.00;95.60;;;;;;5011275;28;20782;-73
2022/11/21 04:18:12;;;;;;;76.35;35.00;;;6.00;94.50;;;;;;5011389;28;20385;-73
2022/11/21 04:20:39;;;;;;;88.10;37.65;;;6.00;94.30;;;;;;5011012;28;20798;-72
2022/11/21 04:23:05;;;;;;;96.50;39.58;;;6.00;93.10;;;;;;5011420;28;20912;-73
2022/11/21 04:25:31;;;;;;;89.05;40.13;;;5.90;96.00;;;;;;5015343;28;20428;-73
2022/11/21 04:27:58;;;;;;;102.43;40.95;;;6.00;95.40;;;;;;5018892;28;20723;-72
2022/11/21 04:30:24;;;;;;;104.38;42.08;;;6.00;96.20;;;;;;5016374;28;20393;-72
2022/11/21 04:32:50;;;;;;;106.95;40.97;;;6.10;94.10;;;;;;5018460;28;20424;-72
2022/11/21 04:35:16;;;;;;;91.28;38.95;;;6.10;91.70;;;;;;5018398;28;20416;-71
2022/11/21 04:37:42;;;;;;;89.45;38.15;;;6.10;91.80;;;;;;5018488;28;20389;-74
2022/11/21 04:40:08;;;;;;;104.47;39.45;;;6.00;91.60;;;;;;5017263;28;20385;-74
2022/11/21 04:42:34;;;;;;;89.15;38.78;;;5.90;94.10;;;;;;5015216;28;20392;-73
2022/11/21 04:44:59;;;;;;;90.07;37.45;;;5.90;95.90;;;;;;5014654;28;20401;-74
2022/11/21 04:47:25;;;;;;;86.07;35.22;;;5.90;99.30;;;;;;5014550;28;20385;-74
2022/11/21 04:49:51;;;;;;;72.82;34.70;;;5.90;97.50;;;;;;5014473;28;20404;-73
2022/11/21 04:52:16;;;;;;;83.53;34.70;;;6.00;93.30;;;;;;5014110;28;20409;-74
2022/11/21 04:54:42;;;;;;;82.23;35.97;;;6.00;88.60;;;;;;5014524;28;20395;-73
2022/11/21 04:57:08;;;;;;;81.77;35.30;;;5.90;90.10;;;;;;5014547;28;20468;-74
2022/11/21 04:59:33;;;;;;;91.27;36.13;;;5.80;91.50;;;;;;5014461;28;20396;-73
2022/11/21 05:01:59;;;;;;;98.33;39.03;;;5.80;92.40;;;;;;5012797;28;20881;-73
2022/11/21 05:04:24;;;;;;;90.47;38.80;;;5.70;94.60;;;;;;5014261;28;20385;-77
2022/11/21 05:06:50;;;;;;;94.78;38.55;;;5.70;99.90;;;;;;5014296;28;20466;-72
2022/11/21 05:09:15;;;;;;;89.93;35.95;;;5.80;99.90;;;;;;5014224;28;20463;-74
2022/11/21 05:14:25;;;;;;;80.68;34.63;;;5.90;99.30;;;;;;5014304;28;20434;-74
2022/11/21 05:16:52;;;;;;;88.43;37.45;;;5.80;99.90;;;;;;5014072;28;20380;-73
2022/11/21 05:19:17;;;;;;;83.10;36.30;;;5.70;99.90;;;;;;5014661;28;20446;-74
2022/11/21 05:21:43;;;;;;;82.93;37.43;;;5.70;99.90;;;;;;5013911;28;20464;-73
2022/11/21 05:24:08;;;;;;;87.80;38.30;;;5.70;99.90;;;;;;5014036;28;20387;-73
2022/11/21 05:26:34;;;;;;;89.33;37.83;;;5.70;99.90;;;;;;5014069;28;20396;-73
2022/11/21 05:28:59;;;;;;;91.43;39.43;;;5.70;99.90;;;;;;5014157;28;20389;-73
2022/11/21 05:31:25;;;;;;;91.50;39.37;;;5.60;99.90;;;;;;5013694;28;20431;-74
2022/11/21 05:33:51;;;;;;;99.97;40.20;;;5.60;99.90;;;;;;5013629;28;20408;-74
2022/11/21 05:36:16;;;;;;;93.28;39.60;;;5.60;99.90;;;;;;5014024;28;20408;-72
2022/11/21 05:38:42;;;;;;;95.70;39.73;;;5.70;99.90;;;;;;5014042;28;20381;-73
2022/11/21 05:41:07;;;;;;;91.10;39.58;;;5.70;99.90;;;;;;5013533;28;20385;-73
2022/11/21 05:43:45;;;;;;;86.82;38.45;;;5.80;99.90;;;;;;5013496;28;20420;-73
2022/11/21 05:46:16;;;;;;;99.32;40.95;;;5.80;99.90;;;;;;5013640;28;20945;-73
2022/11/21 05:48:41;;;;;;;93.68;40.38;;;5.90;99.90;;;;;;5013215;28;20404;-73
2022/11/21 05:51:08;;;;;;;97.37;40.37;;;5.80;99.90;;;;;;5013252;28;20384;-74
2022/11/21 05:53:34;;;;;;;88.95;40.10;;;5.80;99.90;;;;;;5013351;28;20475;-73
2022/11/21 05:56:05;;;;;;;98.43;40.35;;;5.80;99.90;;;;;;5013565;28;20381;-75
2022/11/21 05:58:30;;;;;;;97.53;41.47;;;5.80;99.90;;;;;;5014590;28;20396;-74
2022/11/21 06:00:57;;;;;;;99.22;40.80;;;5.90;99.90;;;;;;5013435;28;20850;-73
2022/11/21 06:03:26;;;;;;;97.85;39.95;;;5.90;99.90;;;;;;5012276;28;20392;-73
2022/11/21 06:06:12;;;;;;;100.10;40.17;;;5.90;99.90;;;;;;5014091;28;20392;-73
2022/11/21 06:08:43;;;;;;;97.27;38.13;;;5.90;99.90;;;;;;5014007;28;20401;-74
2022/11/21 06:11:11;;;;;;;101.97;41.65;;;6.00;99.90;;;;;;5022156;28;20385;-74
2022/11/21 06:13:37;;;;;;;106.55;42.38;;;5.90;99.90;;;;;;5035714;28;20425;-75
2022/11/21 06:16:05;;;;;;;101.32;41.10;;;6.00;99.90;;;;;;5032338;28;20421;-73
2022/11/21 06:18:35;;;;;;;96.55;39.72;;;6.00;99.90;;;;;;5021932;28;20382;-73
2022/11/21 06:21:22;;;;;;;97.43;39.72;;;6.00;99.90;;;;;;5015978;28;20905;-73
2022/11/21 06:23:53;;;;;;;97.47;39.95;;;6.00;99.90;;;;;;5015003;28;20419;-74
2022/11/21 06:26:22;;;;;;;103.70;40.55;;;6.10;99.90;;;;;;5020063;28;20835;-74
2022/11/21 06:28:48;;;;;;;106.83;40.70;;;6.10;99.90;;;;;;5016087;28;20475;-73
2022/11/21 06:31:16;;;;;;;98.35;40.13;;;6.10;99.90;;;;;;5021413;28;20484;-73
2022/11/21 06:33:43;;;;;;;100.65;41.60;;;6.20;99.90;;;;;;5021534;28;20476;-74
2022/11/21 06:36:11;;;;;;;110.10;42.90;;;6.20;99.90;;;;;;5016232;28;20381;-74
2022/11/21 06:38:37;;;;;;;111.38;42.10;;;6.30;99.90;;;;;;5012764;28;20381;-74
2022/11/21 06:41:08;;;;;;;110.95;42.22;;;6.30;99.90;;;;;;5012614;28;20472;-74
2022/11/21 06:43:34;;;;;;;112.93;43.53;;;6.30;99.90;;;;;;5012422;28;20502;-74
2022/11/21 06:46:02;;;;;;;118.97;45.30;;;6.20;99.90;;;;;;5012752;28;20377;-73
2022/11/21 06:48:27;;;;;;;120.40;43.90;;;6.20;99.90;;;;;;5012200;28;20875;-73
2022/11/21 06:50:53;;;;;;;116.60;43.53;;;6.20;99.90;;;;;;5012126;28;20431;-74
2022/11/21 06:53:19;;;;;;;115.22;43.95;;;6.20;99.90;;;;;;5011297;28;20486;-71
2022/11/21 06:55:44;;;;;;;111.32;42.45;;;6.20;99.90;;;;;;5012327;28;20468;-72
2022/11/21 06:58:10;;;;;;;115.80;42.10;;;6.30;99.90;;;;;;5012589;28;20941;-74
2022/11/21 07:00:35;;;;;;;133.02;45.58;;;6.30;99.90;;;;;;5012385;28;20450;-73
2022/11/21 07:03:02;;;;;;;122.63;45.03;;;6.30;99.90;;;;;;5011791;28;20442;-73
2022/11/21 07:05:28;;;;;;;130.05;46.50;;;6.30;99.90;;;;;;5011916;28;20392;-74
2022/11/21 07:08:01;;;;;;;130.63;44.50;;;6.30;99.90;;;;;;5012153;28;20399;-74
2022/11/21 07:10:27;;;;;;;123.40;44.95;;;6.20;99.90;;;;;;5011239;28;20489;-73
2022/11/21 07:15:42;;;;;;;111.37;43.50;;;6.30;99.90;;;;;;5012421;28;20404;-73
2022/11/21 07:18:08;;;;;;;130.97;46.33;;;6.30;99.90;;;;;;5010133;28;20397;-73
2022/11/21 07:20:33;;;;;;;116.15;43.70;;;6.30;99.90;;;;;;5012530;28;20443;-75
2022/11/21 07:22:59;;;;;;;122.95;45.72;;;6.40;99.90;;;;;;5012027;28;20399;-73
2022/11/21 07:25:25;;;;;;;121.97;45.83;;;6.40;99.90;;;;;;5012389;28;20392;-74
2022/11/21 07:27:51;;;;;;;119.60;44.67;;;6.40;99.90;;;;;;5011800;28;20451;-74
2022/11/21 07:30:16;;;;;;;121.53;45.00;;;6.50;99.90;;;;;;5015795;28;20420;-73
2022/11/21 07:32:42;;;;;;;114.13;44.00;;;6.50;99.90;;;;;;5019740;28;20404;-73
2022/11/21 07:35:08;;;;;;;124.47;44.73;;;6.60;99.90;;;;;;5013845;28;20385;-74
2022/11/21 07:37:38;;;;;;;122.20;42.72;;;6.70;99.90;;;;;;5012173;28;20400;-74
2022/11/21 07:40:04;;;;;;;120.80;43.87;;;6.70;99.90;;;;;;5011735;28;20546;-72
2022/11/21 07:42:32;;;;;;;116.82;44.25;;;6.60;99.90;;;;;;5011371;28;20804;-74
2022/11/21 07:44:57;;;;;;;119.28;43.05;;;6.60;99.90;;;;;;5011377;28;20405;-73
2022/11/21 07:47:23;;;;;;;118.70;42.40;;;6.70;99.90;;;;;;5012045;28;20865;-74
2022/11/21 07:49:48;;;;;;;120.60;45.35;;;6.80;99.90;;;;;;5009183;28;20408;-74
2022/11/21 07:52:14;;;;;;;107.65;42.70;;;6.80;99.90;;;;;;5015265;28;20395;-74
2022/11/21 07:54:39;;;;;;;123.70;44.10;;;6.90;99.90;;;;;;5029666;28;20402;-73
2022/11/21 07:57:05;;;;;;;105.55;42.58;;;6.90;99.90;;;;;;5011558;28;20741;-73
2022/11/21 07:59:30;;;;;;;122.03;43.70;;;6.90;99.90;;;;;;5011424;28;20822;-74
2022/11/21 08:01:56;;;;;;;120.17;43.33;;;7.00;99.90;;;;;;5011579;28;20770;-73
2022/11/21 08:04:21;;;;;;;111.87;43.00;;;7.00;99.90;;;;;;5011479;28;20397;-73
2022/11/21 08:06:47;;;;;;;124.30;44.47;;;7.10;99.90;;;;;;5011310;28;20385;-73
2022/11/21 08:09:12;;;;;;;111.67;44.07;;;7.10;99.90;;;;;;5011549;28;20423;-74
2022/11/21 08:11:38;;;;;;;118.50;43.77;;;7.10;99.90;;;;;;5010963;28;20476;-74
2022/11/21 08:14:03;;;;;;;121.37;43.10;;;7.20;99.90;;;;;;5029171;28;20494;-73
2022/11/21 08:16:31;;;;;;;102.67;40.93;;;7.30;99.90;;;;;;5030891;28;20391;-72
2022/11/21 08:18:58;;;;;;;114.35;41.65;;;7.40;99.90;;;;;;5031134;28;20841;-73
2022/11/21 08:21:23;;;;;;;105.25;41.20;;;7.50;99.90;;;;;;5031015;28;20444;-73
2022/11/21 08:23:49;;;;;;;103.80;39.70;;;7.40;99.90;;;;;;5023710;28;20404;-73
2022/11/21 08:26:15;;;;;;;97.70;40.50;;;7.50;99.90;;;;;;5011425;28;20411;-73
2022/11/21 08:28:41;;;;;;;105.78;40.53;;;7.50;99.90;;;;;;5011671;28;20400;-73
2022/11/21 08:31:07;;;;;;;98.90;39.50;;;7.50;99.90;;;;;;5011505;28;20400;-74
2022/11/21 08:33:33;;;;;;;94.68;39.13;;;7.60;99.90;;;;;;5011409;28;20492;-73
2022/11/21 08:36:03;;;;;;;96.22;37.15;;;7.60;99.90;;;;;;5011746;28;20484;-73
2022/11/21 08:38:28;;;;;;;96.22;38.50;;;7.60;99.90;;;;;;5011183;28;20408;-73
2022/11/21 08:42:01;;;;;;;84.32;36.60;;;7.60;99.90;;;;;;5011002;28;20397;-73
2022/11/21 08:43:39;;;;;;;69.97;31.40;;;7.60;99.90;;;;;;5016194;28;20473;-76
2022/11/21 08:46:05;;;;;;;65.00;28.67;;;7.70;99.90;;;;;;5027816;28;20405;-75
2022/11/21 08:48:30;;;;;;;42.75;21.27;;;7.80;99.90;;;;;;5046926;28;20379;-77
2022/11/21 08:50:56;;;;;;;34.63;17.37;;;8.00;99.10;;;;;;5045846;28;20388;-74
2022/11/21 08:53:22;;;;;;;24.58;15.48;;;8.00;93.10;;;;;;5045623;28;20418;-74
2022/11/21 08:55:47;;;;;;;27.42;15.60;;;8.00;93.20;;;;;;5045353;28;20424;-75
2022/11/21 08:58:13;;;;;;;22.90;16.00;;;8.00;89.20;;;;;;5045041;28;20387;-75
2022/11/21 09:00:38;;;;;;;22.08;14.15;;;8.00;91.90;;;;;;5043654;28;20490;-75
2022/11/21 09:03:05;;;;;;;29.63;16.40;;;8.20;87.60;;;;;;5043510;28;20387;-73
2022/11/21 09:05:33;;;;;;;21.05;14.77;;;8.10;89.80;;;;;;5041347;28;20395;-74
2022/11/21 09:07:59;;;;;;;26.50;15.83;;;8.20;91.00;;;;;;5044999;28;20419;-76
2022/11/21 09:10:26;;;;;;;26.00;15.23;;;8.20;91.20;;;;;;5043427;28;20391;-74
2022/11/21 09:12:51;;;;;;;23.63;15.03;;;8.30;90.40;;;;;;5045054;28;20445;-76
2022/11/21 09:18:02;;;;;;;24.63;13.83;;;8.20;92.00;;;;;;5048806;28;20406;-76
2022/11/21 09:20:28;;;;;;;27.77;14.97;;;8.30;89.50;;;;;;5030345;28;20389;-76
2022/11/21 09:22:54;;;;;;;23.00;15.00;;;8.50;85.50;;;;;;5028590;28;20415;-76
2022/11/21 09:25:19;;;;;;;28.67;14.50;;;8.50;87.10;;;;;;5028330;28;20399;-76
2022/11/21 09:27:45;;;;;;;21.52;12.05;;;8.60;87.70;;;;;;5029280;28;20428;-74
2022/11/21 09:30:11;;;;;;;26.27;13.05;;;8.80;89.10;;;;;;5033358;28;20392;-74
2022/11/21 09:32:36;;;;;;;24.95;13.55;;;9.10;85.00;;;;;;5028664;28;20405;-77
2022/11/21 09:35:02;;;;;;;21.13;13.10;;;9.30;78.60;;;;;;5027651;28;20431;-76
2022/11/21 09:37:28;;;;;;;23.88;13.70;;;9.30;77.40;;;;;;5027087;28;20447;-76
2022/11/21 09:39:53;;;;;;;24.40;13.95;;;9.30;79.30;;;;;;5031178;28;20397;-74
2022/11/21 09:42:45;;;;;;;22.50;13.50;;;9.60;76.30;;;;;;5032890;28;20431;-73
2022/11/21 09:45:33;;;;;;;23.67;13.60;;;9.70;73.50;;;;;;5022795;28;20401;-75
2022/11/21 09:48:03;;;;;;;24.60;13.40;;;9.60;70.00;;;;;;5014375;28;20909;-74
2022/11/21 09:50:34;;;;;;;22.50;14.00;;;9.60;70.60;;;;;;5015973;28;20458;-75
2022/11/21 09:53:26;;;;;;;25.23;13.63;;;9.70;70.70;;;;;;5015595;28;20405;-74
2022/11/21 09:56:06;;;;;;;23.27;13.10;;;9.70;71.80;;;;;;5015499;28;20416;-74
2022/11/21 09:58:35;;;;;;;29.10;13.88;;;9.60;71.10;;;;;;5015791;28;20778;-77
2022/11/21 10:01:00;;;;;;;25.42;14.27;;;9.60;70.80;;;;;;5014163;28;20396;-74
2022/11/21 10:03:31;;;;;;;26.67;13.85;;;9.60;71.70;;;;;;5015890;28;20486;-74
2022/11/21 10:06:27;;;;;;;23.67;13.80;;;9.70;72.00;;;;;;5015538;28;20481;-75
2022/11/21 10:09:22;;;;;;;21.13;12.30;;;9.70;73.50;;;;;;5013059;28;20404;-75
2022/11/21 10:15:24;;;;;;;29.95;13.00;;;9.60;69.40;;;;;;5030315;28;20380;-74
2022/11/21 10:18:01;;;;;;;21.50;12.15;;;9.70;69.20;;;;;;5029893;28;20391;-74
2022/11/21 10:20:57;;;;;;;21.75;11.35;;;9.70;67.30;;;;;;5029316;28;20393;-74
2022/11/21 10:23:50;;;;;;;24.70;11.93;;;9.70;64.50;;;;;;5014902;28;20817;-74
2022/11/21 10:26:37;;;;;;;17.33;10.32;;;9.70;66.60;;;;;;5014299;28;20722;-76
2022/11/21 10:29:21;;;;;;;23.73;11.43;;;9.70;62.60;;;;;;5014632;28;20393;-76
2022/11/21 10:31:48;;;;;;;21.45;11.10;;;9.70;65.20;;;;;;5014491;28;20439;-75
2022/11/21 10:34:24;;;;;;;28.02;12.32;;;9.80;64.30;;;;;;5013533;28;20495;-75
2022/11/21 10:37:24;;;;;;;25.00;11.98;;;9.80;63.50;;;;;;5016316;28;20396;-74
2022/11/21 10:39:51;;;;;;;22.23;11.03;;;9.80;64.90;;;;;;5008662;28;20719;-76
2022/11/21 10:42:39;;;;;;;21.40;10.93;;;9.80;64.40;;;;;;5015304;28;20416;-73
2022/11/21 10:45:17;;;;;;;24.30;11.20;;;9.90;63.30;;;;;;5013152;28;20412;-74
2022/11/21 10:47:48;;;;;;;26.38;10.95;;;9.80;64.30;;;;;;5012742;28;20742;-75
2022/11/21 10:50:38;;;;;;;19.33;10.85;;;9.70;65.10;;;;;;5012945;28;20369;-74
2022/11/21 10:56:04;;;;;;;24.52;10.80;;;9.60;67.60;;;;;;5013208;28;20493;-75
2022/11/21 10:58:41;;;;;;;20.85;9.95;;;9.70;68.80;;;;;;5012868;28;20403;-75
2022/11/21 11:01:20;;;;;;;20.50;9.10;;;9.90;68.00;;;;;;5012590;28;20454;-75
2022/11/21 11:03:46;;;;;;;19.98;10.10;;;10.10;61.30;;;;;;5013092;28;20750;-76
2022/11/21 11:06:11;;;;;;;25.70;9.47;;;10.30;59.00;;;;;;5012218;28;20441;-74
2022/11/21 11:08:53;;;;;;;19.80;9.10;;;10.50;57.30;;;;;;5012276;28;20443;-75
2022/11/21 11:11:25;;;;;;;22.48;8.90;;;10.50;56.20;;;;;;5012176;28;20399;-74
2022/11/21 11:13:57;;;;;;;19.83;9.02;;;10.30;55.30;;;;;;5011861;28;20808;-74
2022/11/21 11:16:23;;;;;;;17.40;9.05;;;10.20;56.80;;;;;;5010738;28;20393;-74
2022/11/21 11:19:02;;;;;;;25.02;9.30;;;10.10;58.90;;;;;;5011751;28;20385;-74
2022/11/21 11:21:41;;;;;;;23.40;10.70;;;9.90;61.70;;;;;;5011852;28;20896;-74
2022/11/21 11:24:09;;;;;;;21.27;9.10;;;9.90;62.30;;;;;;5012312;28;20389;-74
2022/11/21 11:26:47;;;;;;;17.55;10.50;;;9.90;62.40;;;;;;5012506;28;20392;-77
2022/11/21 11:29:24;;;;;;;26.87;10.97;;;9.80;63.50;;;;;;5012158;28;20817;-75
2022/11/21 11:31:54;;;;;;;23.98;11.82;;;9.70;64.60;;;;;;5011903;28;20388;-73
2022/11/21 11:34:20;;;;;;;23.77;11.30;;;9.70;64.90;;;;;;5012421;28;20409;-74
2022/11/21 11:37:05;;;;;;;24.65;10.98;;;9.60;67.60;;;;;;5012095;28;20476;-74
2022/11/21 11:39:37;;;;;;;23.77;10.07;;;9.50;68.90;;;;;;5011600;28;20373;-74
2022/11/21 11:48:09;;;;;;;24.80;9.48;;;9.50;68.00;;;;;;5012155;28;20431;-76
2022/11/21 11:50:41;;;;;;;25.60;10.40;;;9.50;66.20;;;;;;5012033;28;20428;-75
2022/11/21 11:53:18;;;;;;;21.42;10.15;;;9.50;69.00;;;;;;5011590;28;20412;-75
2022/11/21 11:56:05;;;;;;;22.35;9.32;;;9.60;68.70;;;;;;5012245;28;20924;-74
2022/11/21 11:58:43;;;;;;;19.42;9.38;;;9.70;67.30;;;;;;5012816;28;20389;-76
2022/11/21 12:01:35;;;;;;;25.65;11.20;;;9.70;65.10;;;;;;5011877;28;20406;-74
2022/11/21 12:04:11;;;;;;;22.92;9.20;;;10.00;65.80;;;;;;5011687;28;20385;-75
2022/11/21 12:06:47;;;;;;;18.67;10.00;;;10.20;63.70;;;;;;5012035;28;20431;-74
2022/11/21 12:09:25;;;;;;;19.23;10.30;;;10.30;62.90;;;;;;5012476;28;20411;-74
2022/11/21 12:12:07;;;;;;;24.60;11.23;;;10.50;60.50;;;;;;5011913;28;20781;-74
2022/11/21 12:17:42;;;;;;;20.17;8.97;;;10.80;53.00;;;;;;5015982;28;20392;-75
2022/11/21 12:20:19;;;;;;;22.25;9.07;;;10.80;52.80;;;;;;5012635;28;20452;-75
2022/11/21 12:22:48;;;;;;;17.70;9.07;;;10.60;53.70;;;;;;5012847;28;20385;-74
2022/11/21 12:25:14;;;;;;;17.77;8.70;;;10.60;54.60;;;;;;5016857;28;20399;-75
2022/11/21 12:27:41;;;;;;;16.63;9.43;;;10.50;55.40;;;;;;5017028;28;20389;-75
2022/11/21 12:30:25;;;;;;;22.73;8.63;;;10.30;56.20;;;;;;5012172;28;20381;-75
2022/11/21 12:33:05;;;;;;;18.58;7.97;;;10.10;57.20;;;;;;5011734;28;20435;-75
2022/11/21 12:35:35;;;;;;;20.90;9.03;;;10.10;58.70;;;;;;5011734;28;20391;-75
2022/11/21 12:38:28;;;;;;;24.20;8.80;;;10.00;59.50;;;;;;5011450;28;20385;-75
2022/11/21 12:44:20;;;;;;;14.25;7.75;;;9.70;61.10;;;;;;5011429;28;20411;-74
2022/11/21 12:46:51;;;;;;;17.85;7.97;;;9.60;62.30;;;;;;5011401;28;20393;-75
2022/11/21 12:55:38;;;;;;;19.38;8.90;;;9.60;65.00;;;;;;5015729;28;20383;-76
2022/11/21 12:58:21;;;;;;;23.33;7.90;;;9.70;67.80;;;;;;5014872;28;20385;-75
2022/11/21 13:00:58;;;;;;;20.95;8.27;;;10.00;66.50;;;;;;5014898;28;20387;-75
2022/11/21 13:03:43;;;;;;;23.47;8.93;;;10.10;63.40;;;;;;5014994;28;20444;-75
2022/11/21 13:06:22;;;;;;;14.65;7.05;;;10.20;64.60;;;;;;5015202;28;20522;-74
2022/11/21 13:08:50;;;;;;;24.02;7.63;;;10.20;61.40;;;;;;5015094;28;20385;-74
2022/11/21 13:14:38;;;;;;;17.42;7.90;;;10.30;63.60;;;;;;5014755;28;20439;-74
2022/11/21 13:17:09;;;;;;;17.48;6.68;;;10.40;61.70;;;;;;5014508;28;20400;-75
2022/11/21 13:20:08;;;;;;;18.73;7.63;;;10.50;58.70;;;;;;5014450;28;20377;-73
2022/11/21 13:22:36;;;;;;;20.45;7.68;;;10.50;60.50;;;;;;5012867;28;20403;-74